Terminal Aerodrome Forecast
Issued by NWS

Home | Current Version | Previous Version | Text Only | Print | Product List | Glossary On
Versions: 1 2 3 4 5 6 7 8 9 10 11 12 13
164
FTUS45 KTFX 251724
TAFHVR
TAF
KHVR 251724Z 2518/2618 VRB06KT P6SM SCT090
     FM260000 VRB06KT P6SM VCTS BKN090CB
     FM260300 05007KT P6SM SCT090 SCT150=

USA.gov is the U.S. government's official web portal to all federal, state and local government web resources and services.